Boneville, GA

08:00 PM EDT del 29 Luglio 2015 (GMT -0400)
Thomson-McDuffie County | | Change Station
CLOSE
Current Station
Aeroporto
Location: Thomson,
Altitudine: 499 ft
Stazioni meteo nelle vicinanze

Alt. 499 ft 33.53 °N, 82.52 °W | Updated 25 minutes ago

Parzialmente nuvoloso
Parzialmente nuvoloso
82 °F
Sembra 93 °F
N
0
Vento Variabile Vento da Nord

Oggi
Massima -- | Minima -- °F
--% Possibilità di precip.
Ieri
Massima -- | Minima -- °F
Precip. -- in
6:40 AM 8:32 PM
Gobba a ponente, 97% visible
Pressione 29.99 in
Visibilità 5.0 miglia
Nuvole Sereno
Indice di calore 93 °F
Punto di rugiada 81 °F
Umidità 97%
Piovosità 0.00 in
Spessore del manto nevoso Non disponibile.
Raggi UV 1 fuori da 12
Polline 3.80 fuori da 12
Qualità dell'aria Non disponibile.
Flu Activity Non disponibile.
METAR KHQU 292335Z AUTO 00000KT 5SM CLR 28/27 A2999 RMK AO1 T02770272

More Conditions Fewer Conditions

Pressione 29.99 in
Visibilità 5.0 miglia
Nuvole Sereno
Indice di calore 93 °F
Punto di rugiada 81 °F
Umidità 97%
Piovosità 0.00 in
Spessore del manto nevoso Non disponibile.
Raggi UV 1 fuori da 12
Polline 3.80 fuori da 12
Qualità dell'aria Non disponibile.
Flu Activity Non disponibile.
METAR KHQU 292335Z AUTO 00000KT 5SM CLR 28/27 A2999 RMK AO1 T02770272

More Conditions Fewer Conditions

10-Day Weather Forecast

×

Almanac

Astronomia

Jul. 29, 2015 Alba Tramonto
Ora attuale
Crepuscolo civile
Crepuscolo nautico
Crepuscolo astronomico
Luna
Estensione della luce visibile
Lunghezza del giorno
Tomorrow will be .
, % of the Moon is Illuminated

Gli estremi di oggi

State Highs State Lows

Community

WunderPhotos

Upload Photos

1,842,204 foto caricate!

WunderBlogs® & News

Nearby

Qualità dell'aria

  Qualità dell'aria Indice AQ Inquinante
Not available.

Profondità neve

Stazione Profondità Altitudine

Attività sismica

Città  Distanza Mag. Data & Ora
Minimo Magnitudo Mostrato è 2.5.

Temperature delle acque costiere

Località Temperatura

Stations

Stazioni meteo nelle vicinanze

Ubicazione della stazione Temp. Raffreddamento del vento Punto di rugiada Umidità Vento Precip. Alt. Aggiornato Tipo